PWSweather.com
Personal Weather Stations
Station Observations
TARRYHILL
Tarrytown, NY 10591

Tarrytown, NY 10591

Lat: 41.05185, Lon: -73.85296

Elevation: 341

Station Type: Davis Vantage Vue

www.tarrytownnyweather.com

High Low Average
Temperature 86.2°F30.1°F 69.2°F20.7°F 76.6°F24.8°F
Dew Point 71.9°F22.2°F 66.9°F19.4°F 69.0°F20.6°F
Winds 7.1 mph S11.4 mph S Calm Calm 2.1 mph 3.4 mph
Wind Gusts 14.0 mph22.5 mph -- 3.9 mph6.3 mph
Humidity 94% 55% 79%
Pressure 29.91 in1012.90 in 29.67 in1004.70 in -
Precipitation 0.00 in0.00 in - -
Hour Temp Dew Point Humidity Winds Wind Gusts Pressure Precip Precip Rate Daily Precip Total
12:00 AM 72.2°F22.3°C 67.8°F19.9°C 86% 0.9 mph S1.4 kmh S 1.0 mph1.6 kmh 29.91 in1012.9 mb 0.00 in0.0 mm 0.00 in/hr0.0 mm/hr 0.00 in0.0 mm
12:10 AM 72.1°F22.3°C 67.6°F19.8°C 86% 1.1 mph SSE1.8 kmh SSE 2.0 mph3.2 kmh 29.91 in1012.9 mb 0.00 in0.0 mm 0.00 in/hr0.0 mm/hr 0.00 in0.0 mm
12:20 AM 71.9°F22.2°C 67.9°F19.9°C 87% 1.0 mph SSE1.6 kmh SSE 3.0 mph4.8 kmh 29.90 in1012.5 mb 0.00 in0.0 mm 0.00 in/hr0.0 mm/hr 0.00 in0.0 mm
12:30 AM 71.7°F22.1°C 67.6°F19.8°C 87% 1.2 mph SW1.9 kmh SW 3.0 mph4.8 kmh 29.90 in1012.5 mb 0.00 in0.0 mm 0.00 in/hr0.0 mm/hr 0.00 in0.0 mm
12:40 AM 71.5°F21.9°C 67.8°F19.9°C 88% 1.9 mph SSW3.1 kmh SSW 3.0 mph4.8 kmh 29.90 in1012.5 mb 0.00 in0.0 mm 0.00 in/hr0.0 mm/hr 0.00 in0.0 mm
12:50 AM 71.4°F21.9°C 67.7°F19.8°C 88% 1.7 mph S2.7 kmh S 4.0 mph6.4 kmh 29.90 in1012.5 mb 0.00 in0.0 mm 0.00 in/hr0.0 mm/hr 0.00 in0.0 mm
01:00 AM 71.2°F21.8°C 67.8°F19.9°C 89% 1.0 mph SSE1.6 kmh SSE 2.0 mph3.2 kmh 29.90 in1012.5 mb 0.00 in0.0 mm 0.00 in/hr0.0 mm/hr 0.00 in0.0 mm
01:10 AM 71.2°F21.8°C 67.8°F19.9°C 89% 0.5 mph SSE0.8 kmh SSE 1.0 mph1.6 kmh 29.89 in1012.2 mb 0.00 in0.0 mm 0.00 in/hr0.0 mm/hr 0.00 in0.0 mm
01:20 AM 71.1°F21.7°C 67.7°F19.8°C 89% 1.9 mph SE3.1 kmh SE 4.0 mph6.4 kmh 29.89 in1012.2 mb 0.00 in0.0 mm 0.00 in/hr0.0 mm/hr 0.00 in0.0 mm
01:30 AM 71.0°F21.7°C 67.9°F19.9°C 90% 0.8 mph SE1.3 kmh SE 1.0 mph1.6 kmh 29.88 in1011.9 mb 0.00 in0.0 mm 0.00 in/hr0.0 mm/hr 0.00 in0.0 mm
01:40 AM 70.8°F21.6°C 67.7°F19.8°C 90% 0.1 mph SSE0.2 kmh SSE 2.0 mph3.2 kmh 29.88 in1011.9 mb 0.00 in0.0 mm 0.00 in/hr0.0 mm/hr 0.00 in0.0 mm
01:50 AM 70.7°F21.5°C 67.9°F19.9°C 91% 1.7 mph SE2.7 kmh SE 3.0 mph4.8 kmh 29.88 in1011.9 mb 0.00 in0.0 mm 0.00 in/hr0.0 mm/hr 0.00 in0.0 mm
02:00 AM 70.6°F21.4°C 67.8°F19.9°C 91% 0.3 mph SW0.5 kmh SW 1.0 mph1.6 kmh 29.87 in1011.5 mb 0.00 in0.0 mm 0.00 in/hr0.0 mm/hr 0.00 in0.0 mm
02:10 AM 70.6°F21.4°C 67.8°F19.9°C 91% 1.2 mph SSW1.9 kmh SSW 4.0 mph6.4 kmh 29.87 in1011.5 mb 0.00 in0.0 mm 0.00 in/hr0.0 mm/hr 0.00 in0.0 mm
02:20 AM 70.6°F21.4°C 67.8°F19.9°C 91% 0.1 mph SW0.2 kmh SW 1.0 mph1.6 kmh 29.86 in1011.2 mb 0.00 in0.0 mm 0.00 in/hr0.0 mm/hr 0.00 in0.0 mm
02:30 AM 70.5°F21.4°C 68.1°F20.1°C 92% 2.7 mph SSE4.3 kmh SSE 5.0 mph8.0 kmh 29.86 in1011.2 mb 0.00 in0.0 mm 0.00 in/hr0.0 mm/hr 0.00 in0.0 mm
02:40 AM 70.3°F21.3°C 67.8°F19.9°C 92% Calm Calm -- 29.85 in1010.8 mb 0.00 in0.0 mm 0.00 in/hr0.0 mm/hr 0.00 in0.0 mm
02:50 AM 70.0°F21.1°C 67.5°F19.7°C 92% 0.4 mph S0.6 kmh S 2.0 mph3.2 kmh 29.84 in1010.5 mb 0.00 in0.0 mm 0.00 in/hr0.0 mm/hr 0.00 in0.0 mm
03:00 AM 69.8°F21.0°C 67.7°F19.8°C 93% 0.4 mph S0.6 kmh S -- 29.85 in1010.8 mb 0.00 in0.0 mm 0.00 in/hr0.0 mm/hr 0.00 in0.0 mm
03:10 AM 69.7°F20.9°C 67.6°F19.8°C 93% 0.7 mph SSW1.1 kmh SSW 1.0 mph1.6 kmh 29.84 in1010.5 mb 0.00 in0.0 mm 0.00 in/hr0.0 mm/hr 0.00 in0.0 mm
03:20 AM 69.7°F20.9°C 67.6°F19.8°C 93% 0.5 mph S0.8 kmh S 2.0 mph3.2 kmh 29.85 in1010.8 mb 0.00 in0.0 mm 0.00 in/hr0.0 mm/hr 0.00 in0.0 mm
03:30 AM 69.9°F21.1°C 67.8°F19.9°C 93% Calm Calm -- 29.85 in1010.8 mb 0.00 in0.0 mm 0.00 in/hr0.0 mm/hr 0.00 in0.0 mm
03:40 AM 70.0°F21.1°C 67.9°F19.9°C 93% Calm Calm -- 29.84 in1010.5 mb 0.00 in0.0 mm 0.00 in/hr0.0 mm/hr 0.00 in0.0 mm
03:50 AM 69.8°F21.0°C 67.7°F19.8°C 93% Calm Calm -- 29.84 in1010.5 mb 0.00 in0.0 mm 0.00 in/hr0.0 mm/hr 0.00 in0.0 mm
04:00 AM 69.7°F20.9°C 67.6°F19.8°C 93% Calm Calm -- 29.85 in1010.8 mb 0.00 in0.0 mm 0.00 in/hr0.0 mm/hr 0.00 in0.0 mm
04:10 AM 69.8°F21.0°C 68.0°F20.0°C 94% Calm Calm -- 29.84 in1010.5 mb 0.00 in0.0 mm 0.00 in/hr0.0 mm/hr 0.00 in0.0 mm
04:20 AM 69.8°F21.0°C 67.9°F19.9°C 94% Calm Calm -- 29.83 in1010.2 mb 0.00 in0.0 mm 0.00 in/hr0.0 mm/hr 0.00 in0.0 mm
04:30 AM 69.7°F20.9°C 67.9°F19.9°C 94% Calm Calm -- 29.83 in1010.2 mb 0.00 in0.0 mm 0.00 in/hr0.0 mm/hr 0.00 in0.0 mm
04:40 AM 69.5°F20.8°C 67.7°F19.8°C 94% Calm Calm -- 29.83 in1010.2 mb 0.00 in0.0 mm 0.00 in/hr0.0 mm/hr 0.00 in0.0 mm
04:50 AM 69.4°F20.8°C 67.6°F19.8°C 94% Calm Calm -- 29.84 in1010.5 mb 0.00 in0.0 mm 0.00 in/hr0.0 mm/hr 0.00 in0.0 mm
05:00 AM 69.4°F20.8°C 67.6°F19.8°C 94% 1.5 mph SW2.4 kmh SW 3.0 mph4.8 kmh 29.84 in1010.5 mb 0.00 in0.0 mm 0.00 in/hr0.0 mm/hr 0.00 in0.0 mm
05:10 AM 69.6°F20.9°C 67.8°F19.9°C 94% 0.1 mph SW0.2 kmh SW 1.0 mph1.6 kmh 29.83 in1010.2 mb 0.00 in0.0 mm 0.00 in/hr0.0 mm/hr 0.00 in0.0 mm
05:20 AM 69.6°F20.9°C 67.8°F19.9°C 94% Calm Calm -- 29.83 in1010.2 mb 0.00 in0.0 mm 0.00 in/hr0.0 mm/hr 0.00 in0.0 mm
05:30 AM 69.6°F20.9°C 67.8°F19.9°C 94% 0.2 mph NW0.3 kmh NW -- 29.83 in1010.2 mb 0.00 in0.0 mm 0.00 in/hr0.0 mm/hr 0.00 in0.0 mm
05:40 AM 69.2°F20.7°C 67.4°F19.7°C 94% 0.1 mph SW0.2 kmh SW 1.0 mph1.6 kmh 29.83 in1010.2 mb 0.00 in0.0 mm 0.00 in/hr0.0 mm/hr 0.00 in0.0 mm
05:50 AM 69.2°F20.7°C 67.4°F19.7°C 94% 1.2 mph SSE1.9 kmh SSE 1.0 mph1.6 kmh 29.83 in1010.2 mb 0.00 in0.0 mm 0.00 in/hr0.0 mm/hr 0.00 in0.0 mm
06:00 AM 69.5°F20.8°C 67.7°F19.8°C 94% 1.2 mph SW1.9 kmh SW 4.0 mph6.4 kmh 29.83 in1010.2 mb 0.00 in0.0 mm 0.00 in/hr0.0 mm/hr 0.00 in0.0 mm
06:10 AM 69.8°F21.0°C 68.0°F20.0°C 94% 0.8 mph SW1.3 kmh SW 2.0 mph3.2 kmh 29.83 in1010.2 mb 0.00 in0.0 mm 0.00 in/hr0.0 mm/hr 0.00 in0.0 mm
06:20 AM 70.0°F21.1°C 68.2°F20.1°C 94% 2.5 mph SSE4.0 kmh SSE 3.0 mph4.8 kmh 29.83 in1010.2 mb 0.00 in0.0 mm 0.00 in/hr0.0 mm/hr 0.00 in0.0 mm
06:30 AM 70.3°F21.3°C 68.2°F20.1°C 93% 2.8 mph SE4.5 kmh SE 4.0 mph6.4 kmh 29.82 in1009.8 mb 0.00 in0.0 mm 0.00 in/hr0.0 mm/hr 0.00 in0.0 mm
06:40 AM 70.7°F21.5°C 68.3°F20.2°C 92% 2.1 mph SSE3.4 kmh SSE 4.0 mph6.4 kmh 29.82 in1009.8 mb 0.00 in0.0 mm 0.00 in/hr0.0 mm/hr 0.00 in0.0 mm
06:50 AM 70.9°F21.6°C 68.5°F20.3°C 92% 1.0 mph SW1.6 kmh SW 2.0 mph3.2 kmh 29.82 in1009.8 mb 0.00 in0.0 mm 0.00 in/hr0.0 mm/hr 0.00 in0.0 mm
07:00 AM 70.7°F21.5°C 68.3°F20.2°C 92% 1.9 mph SSW3.1 kmh SSW 2.0 mph3.2 kmh 29.81 in1009.5 mb 0.00 in0.0 mm 0.00 in/hr0.0 mm/hr 0.00 in0.0 mm
07:10 AM 70.6°F21.4°C 68.5°F20.3°C 93% 1.4 mph SSW2.3 kmh SSW 2.0 mph3.2 kmh 29.81 in1009.5 mb 0.00 in0.0 mm 0.00 in/hr0.0 mm/hr 0.00 in0.0 mm
07:20 AM 70.6°F21.4°C 68.5°F20.3°C 93% 1.5 mph SE2.4 kmh SE 2.0 mph3.2 kmh 29.82 in1009.8 mb 0.00 in0.0 mm 0.00 in/hr0.0 mm/hr 0.00 in0.0 mm
07:30 AM 70.4°F21.3°C 68.3°F20.2°C 93% Calm Calm 1.0 mph1.6 kmh 29.80 in1009.1 mb 0.00 in0.0 mm 0.00 in/hr0.0 mm/hr 0.00 in0.0 mm
07:40 AM 70.3°F21.3°C 68.5°F20.3°C 94% 0.4 mph S0.6 kmh S 1.0 mph1.6 kmh 29.80 in1009.1 mb 0.00 in0.0 mm 0.00 in/hr0.0 mm/hr 0.00 in0.0 mm
07:50 AM 70.4°F21.3°C 68.6°F20.3°C 94% 0.4 mph S0.6 kmh S 1.0 mph1.6 kmh 29.81 in1009.5 mb 0.00 in0.0 mm 0.00 in/hr0.0 mm/hr 0.00 in0.0 mm
08:00 AM 70.6°F21.4°C 68.8°F20.4°C 94% Calm Calm -- 29.80 in1009.1 mb 0.00 in0.0 mm 0.00 in/hr0.0 mm/hr 0.00 in0.0 mm
08:10 AM 70.9°F21.6°C 69.1°F20.6°C 94% 1.0 mph S1.6 kmh S 2.0 mph3.2 kmh 29.80 in1009.1 mb 0.00 in0.0 mm 0.00 in/hr0.0 mm/hr 0.00 in0.0 mm
08:20 AM 71.3°F21.8°C 69.1°F20.6°C 93% 1.8 mph WSW2.9 kmh WSW 5.0 mph8.0 kmh 29.79 in1008.8 mb 0.00 in0.0 mm 0.00 in/hr0.0 mm/hr 0.00 in0.0 mm
08:30 AM 71.7°F22.1°C 69.3°F20.7°C 92% 2.5 mph SE4.0 kmh SE 5.0 mph8.0 kmh 29.80 in1009.1 mb 0.00 in0.0 mm 0.00 in/hr0.0 mm/hr 0.00 in0.0 mm
08:40 AM 72.2°F22.3°C 69.7°F20.9°C 92% 1.6 mph S2.6 kmh S 3.0 mph4.8 kmh 29.79 in1008.8 mb 0.00 in0.0 mm 0.00 in/hr0.0 mm/hr 0.00 in0.0 mm
08:50 AM 72.7°F22.6°C 69.9°F21.1°C 91% 1.0 mph S1.6 kmh S 2.0 mph3.2 kmh 29.79 in1008.8 mb 0.00 in0.0 mm 0.00 in/hr0.0 mm/hr 0.00 in0.0 mm
09:00 AM 73.0°F22.8°C 70.2°F21.2°C 91% 0.6 mph SE1.0 kmh SE 2.0 mph3.2 kmh 29.79 in1008.8 mb 0.00 in0.0 mm 0.00 in/hr0.0 mm/hr 0.00 in0.0 mm
09:10 AM 73.6°F23.1°C 70.2°F21.2°C 89% 2.6 mph SSE4.2 kmh SSE 4.0 mph6.4 kmh 29.79 in1008.8 mb 0.00 in0.0 mm 0.00 in/hr0.0 mm/hr 0.00 in0.0 mm
09:20 AM 74.2°F23.4°C 70.1°F21.2°C 87% 3.7 mph SW6.0 kmh SW 5.0 mph8.0 kmh 29.79 in1008.8 mb 0.00 in0.0 mm 0.00 in/hr0.0 mm/hr 0.00 in0.0 mm
09:30 AM 74.7°F23.7°C 70.2°F21.2°C 86% 2.8 mph SSE4.5 kmh SSE 5.0 mph8.0 kmh 29.79 in1008.8 mb 0.00 in0.0 mm 0.00 in/hr0.0 mm/hr 0.00 in0.0 mm
09:40 AM 74.8°F23.8°C 70.3°F21.3°C 86% 2.1 mph W3.4 kmh W 4.0 mph6.4 kmh 29.77 in1008.1 mb 0.00 in0.0 mm 0.00 in/hr0.0 mm/hr 0.00 in0.0 mm
09:50 AM 75.1°F23.9°C 70.3°F21.3°C 85% 3.4 mph SW5.5 kmh SW 6.0 mph9.7 kmh 29.77 in1008.1 mb 0.00 in0.0 mm 0.00 in/hr0.0 mm/hr 0.00 in0.0 mm
10:00 AM 75.8°F24.3°C 70.3°F21.3°C 83% 3.0 mph SSW4.8 kmh SSW 6.0 mph9.7 kmh 29.77 in1008.1 mb 0.00 in0.0 mm 0.00 in/hr0.0 mm/hr 0.00 in0.0 mm
10:10 AM 76.2°F24.6°C 70.3°F21.3°C 82% 2.3 mph S3.7 kmh S 4.0 mph6.4 kmh 29.77 in1008.1 mb 0.00 in0.0 mm 0.00 in/hr0.0 mm/hr 0.00 in0.0 mm
10:20 AM 75.5°F24.2°C 69.7°F20.9°C 82% 1.4 mph SE2.3 kmh SE 6.0 mph9.7 kmh 29.78 in1008.5 mb 0.00 in0.0 mm 0.00 in/hr0.0 mm/hr 0.00 in0.0 mm
10:30 AM 75.1°F23.9°C 69.9°F21.1°C 84% 2.4 mph SSW3.9 kmh SSW 3.0 mph4.8 kmh 29.78 in1008.5 mb 0.00 in0.0 mm 0.00 in/hr0.0 mm/hr 0.00 in0.0 mm
10:40 AM 75.1°F23.9°C 69.2°F20.7°C 82% 3.9 mph SW6.3 kmh SW 8.0 mph12.9 kmh 29.78 in1008.5 mb 0.00 in0.0 mm 0.00 in/hr0.0 mm/hr 0.00 in0.0 mm
10:50 AM 75.0°F23.9°C 69.1°F20.6°C 82% 2.2 mph SW3.5 kmh SW 6.0 mph9.7 kmh 29.78 in1008.5 mb 0.00 in0.0 mm 0.00 in/hr0.0 mm/hr 0.00 in0.0 mm
11:00 AM 75.1°F23.9°C 69.6°F20.9°C 83% 2.5 mph SE4.0 kmh SE 5.0 mph8.0 kmh 29.78 in1008.5 mb 0.00 in0.0 mm 0.00 in/hr0.0 mm/hr 0.00 in0.0 mm
11:10 AM 75.8°F24.3°C 69.9°F21.1°C 82% 5.7 mph S9.2 kmh S 12.0 mph19.3 kmh 29.77 in1008.1 mb 0.00 in0.0 mm 0.00 in/hr0.0 mm/hr 0.00 in0.0 mm
11:20 AM 75.5°F24.2°C 70.0°F21.1°C 83% 2.5 mph SSW4.0 kmh SSW 4.0 mph6.4 kmh 29.77 in1008.1 mb 0.00 in0.0 mm 0.00 in/hr0.0 mm/hr 0.00 in0.0 mm
11:30 AM 75.5°F24.2°C 70.0°F21.1°C 83% 1.6 mph SSW2.6 kmh SSW 5.0 mph8.0 kmh 29.76 in1007.8 mb 0.00 in0.0 mm 0.00 in/hr0.0 mm/hr 0.00 in0.0 mm
11:40 AM 75.2°F24.0°C 69.7°F20.9°C 83% 2.1 mph SSW3.4 kmh SSW 4.0 mph6.4 kmh 29.76 in1007.8 mb 0.00 in0.0 mm 0.00 in/hr0.0 mm/hr 0.00 in0.0 mm
11:50 AM 75.2°F24.0°C 69.7°F20.9°C 83% 4.2 mph S6.8 kmh S 7.0 mph11.3 kmh 29.76 in1007.8 mb 0.00 in0.0 mm 0.00 in/hr0.0 mm/hr 0.00 in0.0 mm
12:00 PM 75.3°F24.1°C 69.8°F21.0°C 83% 2.4 mph SW3.9 kmh SW 3.0 mph4.8 kmh 29.76 in1007.8 mb 0.00 in0.0 mm 0.00 in/hr0.0 mm/hr 0.00 in0.0 mm
12:10 PM 75.4°F24.1°C 69.5°F20.8°C 82% 3.3 mph WSW5.3 kmh WSW 8.0 mph12.9 kmh 29.75 in1007.5 mb 0.00 in0.0 mm 0.00 in/hr0.0 mm/hr 0.00 in0.0 mm
12:20 PM 76.0°F24.4°C 70.1°F21.2°C 82% 3.6 mph SW5.8 kmh SW 7.0 mph11.3 kmh 29.75 in1007.5 mb 0.00 in0.0 mm 0.00 in/hr0.0 mm/hr 0.00 in0.0 mm
12:30 PM 76.2°F24.6°C 69.9°F21.1°C 81% 2.9 mph SW4.7 kmh SW 5.0 mph8.0 kmh 29.75 in1007.5 mb 0.00 in0.0 mm 0.00 in/hr0.0 mm/hr 0.00 in0.0 mm
12:40 PM 77.2°F25.1°C 70.6°F21.4°C 80% 3.1 mph S5.0 kmh S 9.0 mph14.5 kmh 29.75 in1007.5 mb 0.00 in0.0 mm 0.00 in/hr0.0 mm/hr 0.00 in0.0 mm
12:50 PM 78.4°F25.8°C 70.6°F21.4°C 77% 3.1 mph SSE5.0 kmh SSE 7.0 mph11.3 kmh 29.74 in1007.1 mb 0.00 in0.0 mm 0.00 in/hr0.0 mm/hr 0.00 in0.0 mm
01:00 PM 79.7°F26.5°C 70.3°F21.3°C 73% 6.7 mph SW10.8 kmh SW 10.0 mph16.1 kmh 29.74 in1007.1 mb 0.00 in0.0 mm 0.00 in/hr0.0 mm/hr 0.00 in0.0 mm
01:10 PM 79.4°F26.3°C 70.4°F21.3°C 74% 3.1 mph S5.0 kmh S 5.0 mph8.0 kmh 29.74 in1007.1 mb 0.00 in0.0 mm 0.00 in/hr0.0 mm/hr 0.00 in0.0 mm
01:20 PM 79.9°F26.6°C 70.5°F21.4°C 73% 5.6 mph SW9.0 kmh SW 7.0 mph11.3 kmh 29.74 in1007.1 mb 0.00 in0.0 mm 0.00 in/hr0.0 mm/hr 0.00 in0.0 mm
01:30 PM 81.0°F27.2°C 70.3°F21.3°C 70% 4.1 mph S6.6 kmh S 7.0 mph11.3 kmh 29.74 in1007.1 mb 0.00 in0.0 mm 0.00 in/hr0.0 mm/hr 0.00 in0.0 mm
01:40 PM 81.3°F27.4°C 71.0°F21.7°C 71% 5.6 mph NNE9.0 kmh NNE 6.0 mph9.7 kmh 29.74 in1007.1 mb 0.00 in0.0 mm 0.00 in/hr0.0 mm/hr 0.00 in0.0 mm
01:50 PM 82.4°F28.0°C 71.2°F21.8°C 69% 3.0 mph SSW4.8 kmh SSW 5.0 mph8.0 kmh 29.73 in1006.8 mb 0.00 in0.0 mm 0.00 in/hr0.0 mm/hr 0.00 in0.0 mm
02:00 PM 82.9°F28.3°C 70.3°F21.3°C 66% 3.5 mph WSW5.6 kmh WSW 3.0 mph4.8 kmh 29.73 in1006.8 mb 0.00 in0.0 mm 0.00 in/hr0.0 mm/hr 0.00 in0.0 mm
02:10 PM 83.4°F28.6°C 70.8°F21.6°C 66% 5.5 mph SW8.9 kmh SW 8.0 mph12.9 kmh 29.73 in1006.8 mb 0.00 in0.0 mm 0.00 in/hr0.0 mm/hr 0.00 in0.0 mm
02:20 PM 83.1°F28.4°C 71.0°F21.7°C 67% 6.5 mph SE10.5 kmh SE 9.0 mph14.5 kmh 29.72 in1006.4 mb 0.00 in0.0 mm 0.00 in/hr0.0 mm/hr 0.00 in0.0 mm
02:30 PM 83.4°F28.6°C 70.8°F21.6°C 66% 3.9 mph SW6.3 kmh SW 7.0 mph11.3 kmh 29.72 in1006.4 mb 0.00 in0.0 mm 0.00 in/hr0.0 mm/hr 0.00 in0.0 mm
02:40 PM 83.6°F28.7°C 71.5°F21.9°C 67% 2.5 mph W4.0 kmh W 11.0 mph17.7 kmh 29.72 in1006.4 mb 0.00 in0.0 mm 0.00 in/hr0.0 mm/hr 0.00 in0.0 mm
02:50 PM 83.8°F28.8°C 70.8°F21.6°C 65% 6.4 mph SSW10.3 kmh SSW 12.0 mph19.3 kmh 29.72 in1006.4 mb 0.00 in0.0 mm 0.00 in/hr0.0 mm/hr 0.00 in0.0 mm
03:00 PM 84.0°F28.9°C 71.4°F21.9°C 66% 5.0 mph SW8.0 kmh SW 9.0 mph14.5 kmh 29.71 in1006.1 mb 0.00 in0.0 mm 0.00 in/hr0.0 mm/hr 0.00 in0.0 mm
03:10 PM 84.1°F28.9°C 71.1°F21.7°C 65% 3.6 mph SE5.8 kmh SE 6.0 mph9.7 kmh 29.71 in1006.1 mb 0.00 in0.0 mm 0.00 in/hr0.0 mm/hr 0.00 in0.0 mm
03:20 PM 84.1°F28.9°C 71.1°F21.7°C 65% 3.2 mph W5.1 kmh W 7.0 mph11.3 kmh 29.71 in1006.1 mb 0.00 in0.0 mm 0.00 in/hr0.0 mm/hr 0.00 in0.0 mm
03:30 PM 84.1°F28.9°C 71.1°F21.7°C 65% 4.5 mph SW7.2 kmh SW 7.0 mph11.3 kmh 29.71 in1006.1 mb 0.00 in0.0 mm 0.00 in/hr0.0 mm/hr 0.00 in0.0 mm
03:40 PM 84.8°F29.3°C 71.3°F21.8°C 64% 4.9 mph SSW7.9 kmh SSW 9.0 mph14.5 kmh 29.70 in1005.8 mb 0.00 in0.0 mm 0.00 in/hr0.0 mm/hr 0.00 in0.0 mm
03:50 PM 85.5°F29.7°C 70.9°F21.6°C 62% 3.3 mph WSW5.3 kmh WSW 9.0 mph14.5 kmh 29.70 in1005.8 mb 0.00 in0.0 mm 0.00 in/hr0.0 mm/hr 0.00 in0.0 mm
04:00 PM 85.3°F29.6°C 69.8°F21.0°C 60% 7.1 mph S11.4 kmh S 10.0 mph16.1 kmh 29.70 in1005.8 mb 0.00 in0.0 mm 0.00 in/hr0.0 mm/hr 0.00 in0.0 mm
04:10 PM 85.4°F29.7°C 69.9°F21.1°C 60% 3.1 mph S5.0 kmh S 10.0 mph16.1 kmh 29.70 in1005.8 mb 0.00 in0.0 mm 0.00 in/hr0.0 mm/hr 0.00 in0.0 mm
04:20 PM 85.4°F29.7°C 70.0°F21.1°C 60% 4.8 mph S7.7 kmh S 6.0 mph9.7 kmh 29.70 in1005.8 mb 0.00 in0.0 mm 0.00 in/hr0.0 mm/hr 0.00 in0.0 mm
04:30 PM 86.1°F30.1°C 69.6°F20.9°C 58% 5.9 mph S9.5 kmh S 10.0 mph16.1 kmh 29.70 in1005.8 mb 0.00 in0.0 mm 0.00 in/hr0.0 mm/hr 0.00 in0.0 mm
04:40 PM 85.7°F29.8°C 70.2°F21.2°C 60% 3.1 mph WSW5.0 kmh WSW 5.0 mph8.0 kmh 29.69 in1005.4 mb 0.00 in0.0 mm 0.00 in/hr0.0 mm/hr 0.00 in0.0 mm
04:50 PM 85.7°F29.8°C 68.7°F20.4°C 57% 3.8 mph SW6.1 kmh SW 4.0 mph6.4 kmh 29.69 in1005.4 mb 0.00 in0.0 mm 0.00 in/hr0.0 mm/hr 0.00 in0.0 mm
05:00 PM 85.6°F29.8°C 68.7°F20.4°C 57% 5.2 mph WSW8.4 kmh WSW 8.0 mph12.9 kmh 29.69 in1005.4 mb 0.00 in0.0 mm 0.00 in/hr0.0 mm/hr 0.00 in0.0 mm
05:10 PM 85.1°F29.5°C 69.2°F20.7°C 59% 3.2 mph S5.1 kmh S 8.0 mph12.9 kmh 29.69 in1005.4 mb 0.00 in0.0 mm 0.00 in/hr0.0 mm/hr 0.00 in0.0 mm
05:20 PM 85.7°F29.8°C 68.7°F20.4°C 57% 6.2 mph ESE10.0 kmh ESE 10.0 mph16.1 kmh 29.69 in1005.4 mb 0.00 in0.0 mm 0.00 in/hr0.0 mm/hr 0.00 in0.0 mm
05:30 PM 85.8°F29.9°C 68.8°F20.4°C 57% 3.8 mph S6.1 kmh S 7.0 mph11.3 kmh 29.69 in1005.4 mb 0.00 in0.0 mm 0.00 in/hr0.0 mm/hr 0.00 in0.0 mm
05:40 PM 86.1°F30.1°C 68.5°F20.3°C 56% 4.5 mph SW7.2 kmh SW 6.0 mph9.7 kmh 29.68 in1005.1 mb 0.00 in0.0 mm 0.00 in/hr0.0 mm/hr 0.00 in0.0 mm
05:50 PM 86.2°F30.1°C 68.7°F20.4°C 56% 2.3 mph WSW3.7 kmh WSW 7.0 mph11.3 kmh 29.68 in1005.1 mb 0.00 in0.0 mm 0.00 in/hr0.0 mm/hr 0.00 in0.0 mm
06:00 PM 86.2°F30.1°C 68.2°F20.1°C 55% 4.7 mph SE7.6 kmh SE 10.0 mph16.1 kmh 29.68 in1005.1 mb 0.00 in0.0 mm 0.00 in/hr0.0 mm/hr 0.00 in0.0 mm
06:10 PM 85.9°F29.9°C 68.4°F20.2°C 56% 4.0 mph SW6.4 kmh SW 5.0 mph8.0 kmh 29.67 in1004.7 mb 0.00 in0.0 mm 0.00 in/hr0.0 mm/hr 0.00 in0.0 mm
06:20 PM 85.7°F29.8°C 68.7°F20.4°C 57% 2.9 mph WSW4.7 kmh WSW 6.0 mph9.7 kmh 29.67 in1004.7 mb 0.00 in0.0 mm 0.00 in/hr0.0 mm/hr 0.00 in0.0 mm
06:30 PM 85.7°F29.8°C 68.2°F20.1°C 56% 4.1 mph S6.6 kmh S 14.0 mph22.5 kmh 29.68 in1005.1 mb 0.00 in0.0 mm 0.00 in/hr0.0 mm/hr 0.00 in0.0 mm
06:40 PM 85.6°F29.8°C 68.6°F20.3°C 57% 1.1 mph SW1.8 kmh SW 5.0 mph8.0 kmh 29.67 in1004.7 mb 0.00 in0.0 mm 0.00 in/hr0.0 mm/hr 0.00 in0.0 mm
06:50 PM 85.8°F29.9°C 68.8°F20.4°C 57% 2.4 mph SW3.9 kmh SW 3.0 mph4.8 kmh 29.67 in1004.7 mb 0.00 in0.0 mm 0.00 in/hr0.0 mm/hr 0.00 in0.0 mm
07:00 PM 85.7°F29.8°C 68.7°F20.4°C 57% 0.8 mph SW1.3 kmh SW 2.0 mph3.2 kmh 29.67 in1004.7 mb 0.00 in0.0 mm 0.00 in/hr0.0 mm/hr 0.00 in0.0 mm
07:10 PM 85.9°F29.9°C 68.4°F20.2°C 56% 2.9 mph S4.7 kmh S 3.0 mph4.8 kmh 29.67 in1004.7 mb 0.00 in0.0 mm 0.00 in/hr0.0 mm/hr 0.00 in0.0 mm
07:20 PM 84.5°F29.2°C 68.6°F20.3°C 59% 1.3 mph S2.1 kmh S 3.0 mph4.8 kmh 29.68 in1005.1 mb 0.00 in0.0 mm 0.00 in/hr0.0 mm/hr 0.00 in0.0 mm
07:30 PM 83.3°F28.5°C 68.0°F20.0°C 60% 1.4 mph SW2.3 kmh SW 3.0 mph4.8 kmh 29.67 in1004.7 mb 0.00 in0.0 mm 0.00 in/hr0.0 mm/hr 0.00 in0.0 mm
07:40 PM 82.4°F28.0°C 68.1°F20.1°C 62% 0.9 mph S1.4 kmh S 3.0 mph4.8 kmh 29.68 in1005.1 mb 0.00 in0.0 mm 0.00 in/hr0.0 mm/hr 0.00 in0.0 mm
07:50 PM 81.8°F27.7°C 68.0°F20.0°C 63% 0.2 mph S0.3 kmh S -- 29.68 in1005.1 mb 0.00 in0.0 mm 0.00 in/hr0.0 mm/hr 0.00 in0.0 mm
08:00 PM 81.1°F27.3°C 67.8°F19.9°C 64% Calm Calm -- 29.68 in1005.1 mb 0.00 in0.0 mm 0.00 in/hr0.0 mm/hr 0.00 in0.0 mm
08:10 PM 80.5°F26.9°C 67.6°F19.8°C 65% Calm Calm -- 29.68 in1005.1 mb 0.00 in0.0 mm 0.00 in/hr0.0 mm/hr 0.00 in0.0 mm
08:20 PM 80.0°F26.7°C 67.6°F19.8°C 66% 0.4 mph SW0.6 kmh SW -- 29.68 in1005.1 mb 0.00 in0.0 mm 0.00 in/hr0.0 mm/hr 0.00 in0.0 mm
08:30 PM 79.6°F26.4°C 68.1°F20.1°C 68% Calm Calm -- 29.68 in1005.1 mb 0.00 in0.0 mm 0.00 in/hr0.0 mm/hr 0.00 in0.0 mm
08:40 PM 78.9°F26.1°C 67.4°F19.7°C 68% Calm Calm -- 29.67 in1004.7 mb 0.00 in0.0 mm 0.00 in/hr0.0 mm/hr 0.00 in0.0 mm
08:50 PM 78.8°F26.0°C 66.9°F19.4°C 67% Calm Calm -- 29.67 in1004.7 mb 0.00 in0.0 mm 0.00 in/hr0.0 mm/hr 0.00 in0.0 mm
09:00 PM 78.3°F25.7°C 67.3°F19.6°C 69% Calm Calm -- 29.67 in1004.7 mb 0.00 in0.0 mm 0.00 in/hr0.0 mm/hr 0.00 in0.0 mm
09:10 PM 78.0°F25.6°C 67.0°F19.4°C 69% Calm Calm -- 29.68 in1005.1 mb 0.00 in0.0 mm 0.00 in/hr0.0 mm/hr 0.00 in0.0 mm
09:20 PM 77.4°F25.2°C 67.3°F19.6°C 71% Calm Calm -- 29.68 in1005.1 mb 0.00 in0.0 mm 0.00 in/hr0.0 mm/hr 0.00 in0.0 mm
09:30 PM 77.0°F25.0°C 67.3°F19.6°C 72% Calm Calm -- 29.69 in1005.4 mb 0.00 in0.0 mm 0.00 in/hr0.0 mm/hr 0.00 in0.0 mm
09:40 PM 76.7°F24.8°C 67.8°F19.9°C 74% Calm Calm -- 29.69 in1005.4 mb 0.00 in0.0 mm 0.00 in/hr0.0 mm/hr 0.00 in0.0 mm
09:50 PM 76.7°F24.8°C 67.8°F19.9°C 74% Calm Calm -- 29.69 in1005.4 mb 0.00 in0.0 mm 0.00 in/hr0.0 mm/hr 0.00 in0.0 mm
10:00 PM 77.1°F25.1°C 68.2°F20.1°C 74% Calm Calm -- 29.69 in1005.4 mb 0.00 in0.0 mm 0.00 in/hr0.0 mm/hr 0.00 in0.0 mm
10:10 PM 77.2°F25.1°C 69.0°F20.6°C 76% Calm Calm 2.0 mph3.2 kmh 29.68 in1005.1 mb 0.00 in0.0 mm 0.00 in/hr0.0 mm/hr 0.00 in0.0 mm
10:20 PM 76.9°F24.9°C 69.5°F20.8°C 78% 0.5 mph SSW0.8 kmh SSW 2.0 mph3.2 kmh 29.68 in1005.1 mb 0.00 in0.0 mm 0.00 in/hr0.0 mm/hr 0.00 in0.0 mm
10:30 PM 76.8°F24.9°C 70.2°F21.2°C 80% 0.8 mph W1.3 kmh W 2.0 mph3.2 kmh 29.69 in1005.4 mb 0.00 in0.0 mm 0.00 in/hr0.0 mm/hr 0.00 in0.0 mm
10:40 PM 76.8°F24.9°C 70.2°F21.2°C 80% 1.6 mph SW2.6 kmh SW 4.0 mph6.4 kmh 29.68 in1005.1 mb 0.00 in0.0 mm 0.00 in/hr0.0 mm/hr 0.00 in0.0 mm
10:50 PM 77.2°F25.1°C 70.6°F21.4°C 80% 3.8 mph S6.1 kmh S 6.0 mph9.7 kmh 29.68 in1005.1 mb 0.00 in0.0 mm 0.00 in/hr0.0 mm/hr 0.00 in0.0 mm
11:00 PM 77.4°F25.2°C 70.7°F21.5°C 80% 2.3 mph SW3.7 kmh SW 4.0 mph6.4 kmh 29.68 in1005.1 mb 0.00 in0.0 mm 0.00 in/hr0.0 mm/hr 0.00 in0.0 mm
11:10 PM 77.6°F25.3°C 70.6°F21.4°C 79% 1.1 mph SSW1.8 kmh SSW 1.0 mph1.6 kmh 29.67 in1004.7 mb 0.00 in0.0 mm 0.00 in/hr0.0 mm/hr 0.00 in0.0 mm
11:20 PM 77.9°F25.5°C 71.2°F21.8°C 80% 2.5 mph SW4.0 kmh SW 3.0 mph4.8 kmh 29.67 in1004.7 mb 0.00 in0.0 mm 0.00 in/hr0.0 mm/hr 0.00 in0.0 mm
11:30 PM 78.0°F25.6°C 71.3°F21.8°C 80% 3.5 mph SSW5.6 kmh SSW 7.0 mph11.3 kmh 29.67 in1004.7 mb 0.00 in0.0 mm 0.00 in/hr0.0 mm/hr 0.00 in0.0 mm
11:40 PM 78.1°F25.6°C 71.4°F21.9°C 80% 1.9 mph SSE3.1 kmh SSE 3.0 mph4.8 kmh 29.67 in1004.7 mb 0.00 in0.0 mm 0.00 in/hr0.0 mm/hr 0.00 in0.0 mm
11:50 PM 78.2°F25.7°C 71.9°F22.2°C 81% 2.5 mph SSW4.0 kmh SSW 5.0 mph8.0 kmh 29.67 in1004.7 mb 0.00 in0.0 mm 0.00 in/hr0.0 mm/hr 0.00 in0.0 mm